createdAt,value
2023-04-09T00:00:21.293Z,12.00
2023-04-09T00:02:48.627Z,12.00
2023-04-09T00:05:16.068Z,12.00
2023-04-09T00:07:44.457Z,11.90
2023-04-09T00:10:11.977Z,12.00
2023-04-09T00:12:39.198Z,12.00
2023-04-09T00:15:09.635Z,12.00
2023-04-09T00:17:38.524Z,12.10
2023-04-09T00:20:06.513Z,12.10
2023-04-09T00:22:33.763Z,12.20
2023-04-09T00:25:01.367Z,12.20
2023-04-09T00:27:28.550Z,12.20
2023-04-09T00:29:56.565Z,12.30
2023-04-09T00:32:23.982Z,12.30
2023-04-09T00:34:51.451Z,12.30
2023-04-09T00:37:18.669Z,12.30
2023-04-09T00:39:47.020Z,12.30
2023-04-09T00:42:14.240Z,12.30
2023-04-09T00:44:41.414Z,12.30
2023-04-09T00:47:08.832Z,12.30
2023-04-09T00:49:36.189Z,12.20
2023-04-09T00:52:03.684Z,12.20
2023-04-09T00:54:31.013Z,12.20
2023-04-09T00:56:59.623Z,12.20
2023-04-09T00:59:27.209Z,12.10
2023-04-09T01:01:54.648Z,12.10
2023-04-09T01:04:23.370Z,12.10
2023-04-09T01:07:09.234Z,12.00
2023-04-09T01:09:42.684Z,12.00
2023-04-09T01:12:29.988Z,12.00
2023-04-09T01:15:02.243Z,11.90
2023-04-09T01:17:50.897Z,11.90
2023-04-09T01:20:56.351Z,11.80
2023-04-09T01:23:48.166Z,11.80
2023-04-09T01:26:30.697Z,11.80
2023-04-09T01:29:00.090Z,11.80
2023-04-09T01:31:33.091Z,11.70
2023-04-09T01:34:02.634Z,11.70
2023-04-09T01:36:32.424Z,11.60
2023-04-09T01:39:02.551Z,11.60
2023-04-09T01:41:32.683Z,11.60
2023-04-09T01:44:02.355Z,11.60
2023-04-09T01:46:30.530Z,11.60
2023-04-09T01:48:58.159Z,11.60
2023-04-09T01:51:27.474Z,11.60
2023-04-09T01:53:54.684Z,11.60
2023-04-09T01:56:22.175Z,11.50
2023-04-09T01:58:49.500Z,11.50
2023-04-09T02:01:21.494Z,11.40
2023-04-09T02:03:55.790Z,11.40
2023-04-09T02:07:01.181Z,11.40
2023-04-09T02:09:31.933Z,11.30
2023-04-09T02:12:01.441Z,11.30
2023-04-09T02:14:29.456Z,11.30
2023-04-09T02:16:57.000Z,11.40
2023-04-09T02:19:24.273Z,11.30
2023-04-09T02:21:51.496Z,11.30
2023-04-09T02:24:18.828Z,11.30
2023-04-09T02:26:46.016Z,11.20
2023-04-09T02:29:13.339Z,11.20
2023-04-09T02:31:40.718Z,11.20
2023-04-09T02:34:08.118Z,11.20
2023-04-09T02:36:35.442Z,11.20
2023-04-09T02:39:02.816Z,11.20
2023-04-09T02:41:31.333Z,11.20
2023-04-09T02:43:58.510Z,11.20
2023-04-09T02:46:26.359Z,11.20
2023-04-09T02:48:53.680Z,11.20
2023-04-09T02:51:21.291Z,11.20
2023-04-09T02:53:48.867Z,11.10
2023-04-09T02:56:16.101Z,11.10
2023-04-09T02:58:43.353Z,11.10
2023-04-09T03:01:10.707Z,11.10
2023-04-09T03:03:40.270Z,11.10
2023-04-09T03:06:07.685Z,11.10
2023-04-09T03:08:35.027Z,11.20
2023-04-09T03:11:02.346Z,11.30
2023-04-09T03:13:29.612Z,11.30
2023-04-09T03:15:56.867Z,11.30
2023-04-09T03:18:24.092Z,11.30
2023-04-09T03:20:51.816Z,11.30
2023-04-09T03:23:19.086Z,11.30
2023-04-09T03:25:48.150Z,11.30
2023-04-09T03:28:17.777Z,11.30
2023-04-09T03:30:49.025Z,11.30
2023-04-09T03:33:16.290Z,11.20
2023-04-09T03:35:51.806Z,11.20
2023-04-09T03:38:27.473Z,11.10
2023-04-09T03:40:56.819Z,11.10
2023-04-09T03:43:24.181Z,11.00
2023-04-09T03:45:53.292Z,11.00
2023-04-09T03:48:24.224Z,11.00
2023-04-09T03:50:53.786Z,11.00
2023-04-09T03:53:29.518Z,11.00
2023-04-09T03:56:03.161Z,11.00
2023-04-09T03:58:31.937Z,11.00
2023-04-09T04:01:00.910Z,11.10
2023-04-09T04:03:38.184Z,11.10
2023-04-09T04:06:20.442Z,11.10
2023-04-09T04:08:56.910Z,11.10
2023-04-09T04:11:33.425Z,11.10
2023-04-09T04:14:00.777Z,11.10
2023-04-09T04:16:28.492Z,11.10
2023-04-09T04:18:56.493Z,11.20
2023-04-09T04:21:23.849Z,11.20
2023-04-09T04:23:57.959Z,11.20
2023-04-09T04:26:28.213Z,11.20
2023-04-09T04:28:55.470Z,11.30
2023-04-09T04:31:43.022Z,11.20
2023-04-09T04:34:11.324Z,11.30
2023-04-09T04:36:40.723Z,11.20
2023-04-09T04:39:08.629Z,11.20
2023-04-09T04:42:02.409Z,11.30
2023-04-09T04:44:30.590Z,11.30
2023-04-09T04:47:07.608Z,11.30
2023-04-09T04:49:34.851Z,11.40
2023-04-09T04:52:06.702Z,11.40
2023-04-09T04:54:34.744Z,11.40
2023-04-09T04:57:02.243Z,11.40
2023-04-09T04:59:41.383Z,11.50
2023-04-09T05:02:11.226Z,11.60
2023-04-09T05:04:49.651Z,11.70
2023-04-09T05:07:19.261Z,11.80
2023-04-09T05:09:53.391Z,11.90
2023-04-09T05:12:20.672Z,12.00
2023-04-09T05:14:52.246Z,12.10
2023-04-09T05:17:20.146Z,12.20
2023-04-09T05:19:55.090Z,12.30
2023-04-09T05:22:29.915Z,12.40
2023-04-09T05:24:57.608Z,12.50
2023-04-09T05:27:27.728Z,12.50
2023-04-09T05:30:01.010Z,12.60
2023-04-09T05:32:28.673Z,12.80
2023-04-09T05:34:56.211Z,12.80
2023-04-09T05:37:24.814Z,12.90
2023-04-09T05:39:53.615Z,13.00
2023-04-09T05:42:20.877Z,13.00
2023-04-09T05:45:17.594Z,13.00
2023-04-09T05:47:51.824Z,12.90
2023-04-09T05:50:22.181Z,12.90
2023-04-09T05:52:52.738Z,12.80
2023-04-09T05:55:21.084Z,12.70
2023-04-09T05:57:54.021Z,12.70
2023-04-09T06:00:22.016Z,12.60
2023-04-09T06:02:50.623Z,12.60
2023-04-09T06:05:17.992Z,12.60
2023-04-09T06:07:46.831Z,12.60
2023-04-09T06:10:14.605Z,12.50
2023-04-09T06:12:42.234Z,12.40
2023-04-09T06:15:10.114Z,12.40
2023-04-09T06:17:37.570Z,12.50
2023-04-09T06:20:05.209Z,12.60
2023-04-09T06:22:32.632Z,12.80
2023-04-09T06:25:00.307Z,12.90
2023-04-09T06:27:27.551Z,13.10
2023-04-09T06:29:54.716Z,13.20
2023-04-09T06:32:21.920Z,13.40
2023-04-09T06:34:49.170Z,13.60
2023-04-09T06:37:16.400Z,13.70
2023-04-09T06:39:50.643Z,13.80
2023-04-09T06:42:27.509Z,14.00
2023-04-09T06:45:16.395Z,14.10
2023-04-09T06:47:43.984Z,14.20
2023-04-09T06:50:11.532Z,14.40
2023-04-09T06:52:38.764Z,14.60
2023-04-09T06:55:06.384Z,14.60
2023-04-09T06:57:33.616Z,14.70
2023-04-09T07:00:01.122Z,14.70
2023-04-09T07:02:28.569Z,14.80
2023-04-09T07:04:56.151Z,15.00
2023-04-09T07:07:25.031Z,15.10
2023-04-09T07:09:53.841Z,15.20
2023-04-09T07:12:28.389Z,15.40
2023-04-09T07:15:13.709Z,15.60
2023-04-09T07:17:41.799Z,15.60
2023-04-09T07:20:09.418Z,15.80
2023-04-09T07:22:37.170Z,15.90
2023-04-09T07:25:04.568Z,16.00
2023-04-09T07:27:31.791Z,16.00
2023-04-09T07:30:00.207Z,16.00
2023-04-09T07:32:30.978Z,16.20
2023-04-09T07:34:59.777Z,16.30
2023-04-09T07:37:27.258Z,16.40
2023-04-09T07:39:54.907Z,16.40
2023-04-09T07:42:22.387Z,16.50
2023-04-09T07:44:49.918Z,16.60
2023-04-09T07:47:17.096Z,16.70
2023-04-09T07:49:44.312Z,16.90
2023-04-09T07:52:11.688Z,17.00
2023-04-09T07:54:39.041Z,17.00
2023-04-09T07:57:06.939Z,17.00
2023-04-09T07:59:37.131Z,17.00
2023-04-09T08:02:04.719Z,17.10
2023-04-09T08:04:32.462Z,17.10
2023-04-09T08:06:59.873Z,17.20
2023-04-09T08:09:27.232Z,17.40
2023-04-09T08:11:54.732Z,17.50
2023-04-09T08:14:22.160Z,17.70
2023-04-09T08:16:50.636Z,17.70
2023-04-09T08:19:19.183Z,17.80
2023-04-09T08:21:49.013Z,17.80
2023-04-09T08:24:16.721Z,17.90
2023-04-09T08:26:44.573Z,18.10
2023-04-09T08:29:13.150Z,18.00
2023-04-09T08:31:40.758Z,18.00
2023-04-09T08:34:08.146Z,18.00
2023-04-09T08:36:36.039Z,17.90
2023-04-09T08:39:04.177Z,18.00
2023-04-09T08:41:31.643Z,18.20
2023-04-09T08:43:59.996Z,18.40
2023-04-09T08:46:28.050Z,18.50
2023-04-09T08:48:56.318Z,18.50
2023-04-09T08:51:25.183Z,18.60
2023-04-09T08:54:01.502Z,18.70
2023-04-09T08:56:31.318Z,18.90
2023-04-09T08:58:58.868Z,18.90
2023-04-09T09:01:28.313Z,19.00
2023-04-09T09:04:06.902Z,19.20
2023-04-09T09:06:36.619Z,19.50
2023-04-09T09:09:12.257Z,19.70
2023-04-09T09:11:40.498Z,20.00
2023-04-09T09:14:16.277Z,19.90
2023-04-09T09:17:03.899Z,20.00
2023-04-09T09:19:36.643Z,20.20
2023-04-09T09:22:06.476Z,20.20
2023-04-09T09:24:34.611Z,19.80
2023-04-09T09:27:02.877Z,19.80
2023-04-09T09:29:30.445Z,20.00
2023-04-09T09:31:57.712Z,20.10
2023-04-09T09:34:26.169Z,20.30
2023-04-09T09:36:53.508Z,20.20
2023-04-09T09:39:22.512Z,20.00
2023-04-09T09:42:07.872Z,20.00
2023-04-09T09:44:35.132Z,20.20
2023-04-09T09:47:04.912Z,20.10
2023-04-09T09:49:32.129Z,20.20
2023-04-09T09:52:03.032Z,20.30
2023-04-09T09:54:44.687Z,20.30
2023-04-09T09:57:15.257Z,20.40
2023-04-09T09:59:51.015Z,20.60
2023-04-09T10:02:24.224Z,21.00
2023-04-09T10:04:53.058Z,21.40
2023-04-09T10:07:22.206Z,21.40
2023-04-09T10:09:55.171Z,21.30
2023-04-09T10:12:26.050Z,21.40
2023-04-09T10:14:55.168Z,21.20
2023-04-09T10:17:22.398Z,21.00
2023-04-09T10:20:17.762Z,20.70
2023-04-09T10:22:50.552Z,20.80
2023-04-09T10:25:18.401Z,20.50
2023-04-09T10:27:46.444Z,20.60
2023-04-09T10:30:35.813Z,20.50
2023-04-09T10:33:17.382Z,20.50
2023-04-09T10:35:48.137Z,20.70
2023-04-09T10:38:16.098Z,20.60
2023-04-09T10:40:49.957Z,20.40
2023-04-09T10:43:21.305Z,20.40
2023-04-09T10:45:53.683Z,20.70
2023-04-09T10:48:26.277Z,20.90
2023-04-09T10:50:54.668Z,20.80
2023-04-09T10:53:24.070Z,20.60
2023-04-09T10:55:53.684Z,20.70
2023-04-09T10:58:21.352Z,20.30
2023-04-09T11:00:51.030Z,20.00
2023-04-09T11:03:18.453Z,19.70
2023-04-09T11:06:03.038Z,19.60
2023-04-09T11:08:32.340Z,19.40
2023-04-09T11:11:07.830Z,19.30
2023-04-09T11:13:35.194Z,19.00
2023-04-09T11:16:06.954Z,19.20
2023-04-09T11:18:37.325Z,19.30
2023-04-09T11:21:05.194Z,19.60
2023-04-09T11:23:33.203Z,19.80
2023-04-09T11:26:01.960Z,20.00
2023-04-09T11:28:29.394Z,20.70
2023-04-09T11:30:56.579Z,21.30
2023-04-09T11:33:31.664Z,21.20
2023-04-09T11:35:59.208Z,21.60
2023-04-09T11:38:26.531Z,22.00
2023-04-09T11:40:58.208Z,21.70
2023-04-09T11:43:25.433Z,21.90
2023-04-09T11:45:52.956Z,21.50
2023-04-09T11:48:22.046Z,21.30
2023-04-09T11:50:49.926Z,21.00
2023-04-09T11:53:22.130Z,20.50
2023-04-09T11:55:54.613Z,20.70
2023-04-09T11:58:26.678Z,20.70
2023-04-09T12:00:56.500Z,21.10
2023-04-09T12:03:33.275Z,21.50
2023-04-09T12:06:03.039Z,21.70
2023-04-09T12:08:31.525Z,21.20
2023-04-09T12:11:11.706Z,20.70
2023-04-09T12:13:52.355Z,20.70
2023-04-09T12:16:23.178Z,20.60
2023-04-09T12:18:51.143Z,20.70
2023-04-09T12:21:19.355Z,21.10
2023-04-09T12:23:46.809Z,21.30
2023-04-09T12:26:16.937Z,21.40
2023-04-09T12:28:44.195Z,21.60
2023-04-09T12:31:12.378Z,22.20
2023-04-09T12:33:40.588Z,22.10
2023-04-09T12:36:08.150Z,21.80
2023-04-09T12:38:35.575Z,21.60
2023-04-09T12:41:03.139Z,21.40
2023-04-09T12:43:30.451Z,20.90
2023-04-09T12:45:58.285Z,20.80
2023-04-09T12:48:25.830Z,20.50
2023-04-09T12:50:53.013Z,20.10
2023-04-09T12:53:20.718Z,20.10
2023-04-09T12:55:51.160Z,20.20
2023-04-09T12:58:18.416Z,20.00
2023-04-09T13:00:46.493Z,19.60
2023-04-09T13:03:16.759Z,19.60
2023-04-09T13:05:44.381Z,19.10
2023-04-09T13:08:11.653Z,18.90
2023-04-09T13:10:42.363Z,19.00
2023-04-09T13:13:12.872Z,18.90
2023-04-09T13:15:43.814Z,18.70
2023-04-09T13:18:14.311Z,18.70
2023-04-09T13:20:41.801Z,18.70
2023-04-09T13:23:09.095Z,18.60
2023-04-09T13:25:36.428Z,19.10
2023-04-09T13:28:03.742Z,19.70
2023-04-09T13:30:31.479Z,19.70
2023-04-09T13:32:58.843Z,19.70
2023-04-09T13:35:26.085Z,19.60
2023-04-09T13:37:53.364Z,19.50
2023-04-09T13:40:20.944Z,19.10
2023-04-09T13:42:48.272Z,18.80
2023-04-09T13:45:15.888Z,18.40
2023-04-09T13:47:44.406Z,18.10
2023-04-09T13:50:13.340Z,17.90
2023-04-09T13:52:42.205Z,18.30
2023-04-09T13:55:09.942Z,18.40
2023-04-09T13:57:37.558Z,18.50
2023-04-09T14:00:06.428Z,18.50
2023-04-09T14:02:33.984Z,18.40
2023-04-09T14:05:02.690Z,17.90
2023-04-09T14:07:30.008Z,17.90
2023-04-09T14:09:57.184Z,18.30
2023-04-09T14:12:24.417Z,18.50
2023-04-09T14:14:52.324Z,18.50
2023-04-09T14:17:19.573Z,18.70
2023-04-09T14:19:48.080Z,18.60
2023-04-09T14:22:15.592Z,18.40
2023-04-09T14:24:42.874Z,18.30
2023-04-09T14:27:10.104Z,18.00
2023-04-09T14:29:37.397Z,17.90
2023-04-09T14:32:04.545Z,18.10
2023-04-09T14:34:31.773Z,18.30
2023-04-09T14:36:59.954Z,18.20
2023-04-09T14:39:28.778Z,18.10
2023-04-09T14:41:57.830Z,17.90
2023-04-09T14:44:27.973Z,17.90
2023-04-09T14:46:55.276Z,17.90
2023-04-09T14:49:22.861Z,17.70
2023-04-09T14:51:50.168Z,17.70
2023-04-09T14:54:17.438Z,17.40
2023-04-09T14:56:44.732Z,17.30
2023-04-09T14:59:11.983Z,17.40
2023-04-09T15:01:39.342Z,17.40
2023-04-09T15:04:06.899Z,17.30
2023-04-09T15:06:34.184Z,17.10
2023-04-09T15:09:01.747Z,17.10
2023-04-09T15:11:29.582Z,17.00
2023-04-09T15:13:58.059Z,17.00
2023-04-09T15:16:27.340Z,17.00
2023-04-09T15:18:57.864Z,17.00
2023-04-09T15:21:26.386Z,17.10
2023-04-09T15:23:54.036Z,17.10
2023-04-09T15:26:21.390Z,17.00
2023-04-09T15:28:48.690Z,16.90
2023-04-09T15:31:15.921Z,16.80
2023-04-09T15:33:44.095Z,16.80
2023-04-09T15:36:12.158Z,16.80
2023-04-09T15:38:39.498Z,16.70
2023-04-09T15:41:06.855Z,16.60
2023-04-09T15:43:34.466Z,16.50
2023-04-09T15:46:09.060Z,16.50
2023-04-09T15:48:36.772Z,16.40
2023-04-09T15:51:05.046Z,16.50
2023-04-09T15:53:32.299Z,16.60
2023-04-09T15:55:59.559Z,16.60
2023-04-09T15:58:27.145Z,16.50
2023-04-09T16:00:54.472Z,16.60
2023-04-09T16:03:21.814Z,16.50
2023-04-09T16:05:49.094Z,16.40
2023-04-09T16:08:16.389Z,16.30
2023-04-09T16:10:43.729Z,16.10
2023-04-09T16:13:11.468Z,16.10
2023-04-09T16:15:43.499Z,16.10
2023-04-09T16:18:13.708Z,16.30
2023-04-09T16:20:41.451Z,16.40
2023-04-09T16:23:09.016Z,16.50
2023-04-09T16:25:36.827Z,16.70
2023-04-09T16:28:04.281Z,16.70
2023-04-09T16:30:31.818Z,16.70
2023-04-09T16:32:59.159Z,16.70
2023-04-09T16:35:26.492Z,16.60
2023-04-09T16:37:57.432Z,16.60
2023-04-09T16:40:24.711Z,16.60
2023-04-09T16:42:51.978Z,16.40
2023-04-09T16:45:19.336Z,16.30
2023-04-09T16:47:49.750Z,16.10
2023-04-09T16:50:18.933Z,16.10
2023-04-09T16:52:46.430Z,16.10
2023-04-09T16:55:14.089Z,16.10
2023-04-09T16:57:42.007Z,16.20
2023-04-09T17:00:10.170Z,16.20
2023-04-09T17:02:37.942Z,16.10
2023-04-09T17:05:05.966Z,15.90
2023-04-09T17:07:33.390Z,15.80
2023-04-09T17:10:00.948Z,15.80
2023-04-09T17:12:29.458Z,15.70
2023-04-09T17:14:56.946Z,15.70
2023-04-09T17:17:24.182Z,15.80
2023-04-09T17:19:51.504Z,15.70
2023-04-09T17:22:18.821Z,15.70
2023-04-09T17:24:46.167Z,15.70
2023-04-09T17:27:16.899Z,15.70
2023-04-09T17:29:44.339Z,15.70
2023-04-09T17:32:13.932Z,15.70
2023-04-09T17:34:41.625Z,15.60
2023-04-09T17:37:08.945Z,15.60
2023-04-09T17:39:37.025Z,15.60
2023-04-09T17:42:05.153Z,15.50
2023-04-09T17:44:35.482Z,15.40
2023-04-09T17:47:03.066Z,15.30
2023-04-09T17:49:32.282Z,15.20
2023-04-09T17:51:59.921Z,15.10
2023-04-09T17:54:27.329Z,15.00
2023-04-09T17:56:54.775Z,15.00
2023-04-09T17:59:22.107Z,14.90
2023-04-09T18:01:49.676Z,14.90
2023-04-09T18:04:17.421Z,14.80
2023-04-09T18:06:45.094Z,14.70
2023-04-09T18:09:13.069Z,14.70
2023-04-09T18:11:40.260Z,14.60
2023-04-09T18:14:08.230Z,14.60
2023-04-09T18:16:41.765Z,14.50
2023-04-09T18:19:09.173Z,14.40
2023-04-09T18:21:36.746Z,14.40
2023-04-09T18:24:04.487Z,14.40
2023-04-09T18:26:33.687Z,14.40
2023-04-09T18:29:01.939Z,14.40
2023-04-09T18:31:29.327Z,14.40
2023-04-09T18:33:56.722Z,14.40
2023-04-09T18:36:24.098Z,14.40
2023-04-09T18:38:53.001Z,14.40
2023-04-09T18:41:27.362Z,14.40
2023-04-09T18:43:55.136Z,14.50
2023-04-09T18:46:23.111Z,14.50
2023-04-09T18:48:50.599Z,14.50
2023-04-09T18:51:20.200Z,14.50
2023-04-09T18:53:53.069Z,14.50
2023-04-09T18:56:23.284Z,14.60
2023-04-09T18:58:52.126Z,14.60
2023-04-09T19:01:23.289Z,14.60
2023-04-09T19:03:50.715Z,14.50
2023-04-09T19:06:19.808Z,14.50
2023-04-09T19:08:48.624Z,14.40
2023-04-09T19:11:16.356Z,14.40
2023-04-09T19:13:43.693Z,14.30
2023-04-09T19:16:11.229Z,14.30
2023-04-09T19:18:38.730Z,14.20
2023-04-09T19:21:07.543Z,14.20
2023-04-09T19:23:35.252Z,14.10
2023-04-09T19:26:03.444Z,14.00
2023-04-09T19:28:31.253Z,14.00
2023-04-09T19:31:01.303Z,13.90
2023-04-09T19:33:30.007Z,13.90
2023-04-09T19:35:57.608Z,13.90
2023-04-09T19:38:25.206Z,13.90
2023-04-09T19:40:52.570Z,13.90
2023-04-09T19:43:22.303Z,13.90
2023-04-09T19:45:49.614Z,13.90
2023-04-09T19:48:16.926Z,14.00
2023-04-09T19:50:45.405Z,14.00
2023-04-09T19:53:12.938Z,13.90
2023-04-09T19:55:40.858Z,14.00
2023-04-09T19:58:08.109Z,13.90
2023-04-09T20:00:35.568Z,13.90
2023-04-09T20:03:03.361Z,13.90
2023-04-09T20:05:30.746Z,13.80
2023-04-09T20:07:57.990Z,13.80
2023-04-09T20:10:25.612Z,13.80
2023-04-09T20:12:52.855Z,13.80
2023-04-09T20:15:20.308Z,13.70
2023-04-09T20:17:49.141Z,13.70
2023-04-09T20:20:20.611Z,13.70
2023-04-09T20:22:56.088Z,13.60
2023-04-09T20:25:25.592Z,13.60
2023-04-09T20:27:54.407Z,13.60
2023-04-09T20:30:22.778Z,13.50
2023-04-09T20:32:50.251Z,13.50
2023-04-09T20:35:20.642Z,13.40
2023-04-09T20:37:59.024Z,13.30
2023-04-09T20:40:26.455Z,13.20
2023-04-09T20:42:53.691Z,13.10
2023-04-09T20:45:21.477Z,13.10
2023-04-09T20:47:50.919Z,13.00
2023-04-09T20:50:19.559Z,13.00
2023-04-09T20:52:47.588Z,12.90
2023-04-09T20:55:14.932Z,12.90
2023-04-09T20:57:42.517Z,12.80
2023-04-09T21:00:10.472Z,12.80
2023-04-09T21:02:39.436Z,12.80
2023-04-09T21:05:19.432Z,12.70
2023-04-09T21:07:49.806Z,12.70
2023-04-09T21:10:17.127Z,12.70
2023-04-09T21:12:44.521Z,12.70
2023-04-09T21:15:12.863Z,12.80
2023-04-09T21:17:40.764Z,12.80
2023-04-09T21:20:08.884Z,12.70
2023-04-09T21:22:36.393Z,12.60
2023-04-09T21:25:03.894Z,12.60
2023-04-09T21:27:31.431Z,12.60
2023-04-09T21:29:59.038Z,12.70
2023-04-09T21:32:26.545Z,12.70
2023-04-09T21:34:53.934Z,12.70
2023-04-09T21:37:21.248Z,12.70
2023-04-09T21:39:49.003Z,12.70
2023-04-09T21:42:16.268Z,12.70
2023-04-09T21:44:45.830Z,12.70
2023-04-09T21:47:13.351Z,12.80
2023-04-09T21:49:40.873Z,12.80
2023-04-09T21:52:14.690Z,12.80
2023-04-09T21:54:45.788Z,12.70
2023-04-09T21:57:13.262Z,12.70
2023-04-09T21:59:41.554Z,12.60
2023-04-09T22:02:09.528Z,12.50
2023-04-09T22:04:37.090Z,12.40
2023-04-09T22:07:04.481Z,12.30
2023-04-09T22:09:31.968Z,12.30
2023-04-09T22:11:59.843Z,12.20
2023-04-09T22:14:29.628Z,12.20
2023-04-09T22:16:58.563Z,12.20
2023-04-09T22:19:26.639Z,12.30
2023-04-09T22:21:54.490Z,12.30
2023-04-09T22:24:30.373Z,12.30
2023-04-09T22:27:01.745Z,12.30
2023-04-09T22:29:29.635Z,12.20
2023-04-09T22:31:58.044Z,12.10
2023-04-09T22:34:26.269Z,12.20
2023-04-09T22:36:53.520Z,12.10
2023-04-09T22:39:21.635Z,12.10
2023-04-09T22:41:48.897Z,12.00
2023-04-09T22:44:16.176Z,12.00
2023-04-09T22:46:45.385Z,11.90
2023-04-09T22:49:12.864Z,11.90
2023-04-09T22:51:41.667Z,11.80
2023-04-09T22:54:09.867Z,11.90
2023-04-09T22:56:37.191Z,11.90
2023-04-09T22:59:04.535Z,12.00
2023-04-09T23:01:32.312Z,12.00
2023-04-09T23:03:59.593Z,12.10
2023-04-09T23:06:27.008Z,12.10
2023-04-09T23:08:54.465Z,12.20
2023-04-09T23:11:22.209Z,12.10
2023-04-09T23:13:49.637Z,12.10
2023-04-09T23:16:17.040Z,12.10
2023-04-09T23:18:44.675Z,12.10
2023-04-09T23:21:12.205Z,12.00
2023-04-09T23:23:39.754Z,12.00
2023-04-09T23:26:09.669Z,12.00
2023-04-09T23:28:36.872Z,11.90
2023-04-09T23:31:04.250Z,11.80
2023-04-09T23:33:32.627Z,11.80
2023-04-09T23:35:59.939Z,11.80
2023-04-09T23:38:27.333Z,11.80
2023-04-09T23:40:54.562Z,11.80
2023-04-09T23:43:21.939Z,11.70
2023-04-09T23:45:50.691Z,11.70
2023-04-09T23:48:18.000Z,11.70
2023-04-09T23:50:45.508Z,11.80
2023-04-09T23:53:12.781Z,11.90
2023-04-09T23:55:41.546Z,11.80
2023-04-09T23:58:09.980Z,11.80
